Tropical Cyclones
[Index]
Main Index Home Page Stock Weather Photos Extreme Storms Discussion Storm News and Storm Chasing Reports Tropical Cyclones / Hurricanes / Typhoons Weather Data and Links Wild Fires / Bushfires Weather Observation Techniques Weather Picture Catalogue Tornado Pictures and Reports Stock Video Footage and DVDs for sale
Season 2008-2009 Tropical Cyclone HAMISH Track Map
Season 2008-2009 Summaries (Operational Data): [AU] [SIO] [SPAC] [SH]
<<- Previous TC | 2008-2009 Season | Next TC ->>

click for intensity scale information  Lat/long Grid: Show Hide

 Date Labels: Show Hide

Operational Tropical Cyclone Data : JTWC Advisories | BoM Warnings

Name: HAMISH
Number: 0918

05 Mar 2009 00:00 UTC to 13 Mar 2009 12:00 UTC

    date/time    lat    long     hPa   cat  kts
2009-03-05 00   13.3   148.0    1004         25          
2009-03-05 06   12.9   147.1    1000         30          
2009-03-05 12   13.4   147.0     997    1    35          
2009-03-05 18   13.8   147.0     988    2    50          
2009-03-06 00   14.3   146.8     982    2    60          
2009-03-06 06   14.9   146.6     982    2    60          
2009-03-06 12   15.4   147.2     970    3    65          
2009-03-06 18   16.2   147.7     966    3    80          
2009-03-07 00   16.9   148.1     960    3    85          
2009-03-07 06   17.9   148.8     950    4   100          
2009-03-07 12   18.5   149.3     930    5   115          
2009-03-07 18   19.2   149.9     925    5   115          
2009-03-08 00   20.1   150.5     925    5   115          
2009-03-08 06   20.8   150.8     950    4    90          
2009-03-08 12   21.1   151.4     945    4    95          
2009-03-08 18   21.4   151.9     945    4    95          
2009-03-09 00   22.1   152.6     945    4    95          
2009-03-09 06   22.8   153.2     945    4    95          
2009-03-09 12   23.2   153.7     948    4    95          
2009-03-09 18   23.7   154.1     946    4    95          
2009-03-10 00   24.2   154.8     965    3    85          
2009-03-10 06   24.7   155.6     965    3    85          
2009-03-10 12   24.7   155.9     967    3    70          
2009-03-10 18   24.7   156.0     967    3    70          
2009-03-11 00   24.3   155.0     975    2    55          
2009-03-11 06   23.5   154.9     985    2    50          
2009-03-11 12   22.4   154.8     998    1    40          
2009-03-11 18   22.0   153.5    1002    1    40          
2009-03-11 23   21.0   152.8    1000         33          
2009-03-12 06   21.6   151.9    1004                     
2009-03-12 12   20.7   151.3    1004         22          
2009-03-12 18   20.5   150.9    1004         22          
2009-03-13 00   20.4   150.6    1004         22          
2009-03-13 06   19.8   151.0    1004         22          
2009-03-13 12   19.1   150.3    1004         22          
Winds are 10-min average.

Tropical cyclone tracks developed by Michael Bath using operational warnings and advisories and Google Maps.


[Australian Severe Weather index] [Copyright Notice] [Email Contacts] [Search This Site] [Privacy Policy]
Document: tropical_cyclone_hamish.htm Updated: 28 May 2013